Masontown, West Virginia
Current Conditions -  °F | °C
As of 4:32 AM on Thursday 27 Nov 2014 (Local Time) from KMGW Reporting Station
Overcast Overcast  
Wind Chill: 33°   Ceiling: 1700
Heat Index: 33°   Visibility: 7mi
Dew Point: 29°   Wind: 0mph
Humidity: 85%   Direction: NA
Pressure: 30"   Gusts: NA
Location:  39.55°N, 79.8°W
Report Text: KMGW 270932Z AUTO 00000KT 7SM SCT004 SCT010 OVC017 01/M02 A3000 RMK AO2 T00061017 TSNO
Loading
Personal Weather Stations






























Interactive Weather Map New forecast layout! Learn more

10-Day Weather Forecast

Advertisements
Track Severe Weather on mobile